createdAt,value
2018-07-14T00:01:24.024Z,99.00
2018-07-14T00:03:01.496Z,99.50
2018-07-14T00:04:37.926Z,99.90
2018-07-14T00:06:14.751Z,99.90
2018-07-14T00:07:52.376Z,99.90
2018-07-14T00:09:30.612Z,99.90
2018-07-14T00:11:08.737Z,99.90
2018-07-14T00:12:46.006Z,99.90
2018-07-14T00:14:22.553Z,99.90
2018-07-14T00:16:00.921Z,99.90
2018-07-14T00:19:14.169Z,99.50
2018-07-14T00:20:51.457Z,99.10
2018-07-14T00:22:28.172Z,99.90
2018-07-14T00:24:06.130Z,99.90
2018-07-14T00:25:48.256Z,99.90
2018-07-14T00:27:25.782Z,99.90
2018-07-14T00:29:03.774Z,99.90
2018-07-14T00:30:40.650Z,99.90
2018-07-14T00:32:17.062Z,99.90
2018-07-14T00:33:53.572Z,99.90
2018-07-14T00:35:30.489Z,99.90
2018-07-14T00:37:08.534Z,99.90
2018-07-14T00:38:46.516Z,99.90
2018-07-14T00:40:23.129Z,99.90
2018-07-14T00:42:00.097Z,99.90
2018-07-14T00:43:36.502Z,99.90
2018-07-14T00:47:01.621Z,99.90
2018-07-14T00:48:42.642Z,99.90
2018-07-14T00:50:20.560Z,99.90
2018-07-14T00:52:24.068Z,99.90
2018-07-14T00:54:02.251Z,99.90
2018-07-14T00:55:40.101Z,99.90
2018-07-14T00:57:17.114Z,99.90
2018-07-14T00:58:53.916Z,99.90
2018-07-14T01:00:33.338Z,99.90
2018-07-14T01:02:10.363Z,99.90
2018-07-14T01:03:47.808Z,99.90
2018-07-14T01:05:24.405Z,99.90
2018-07-14T01:07:01.890Z,99.90
2018-07-14T01:08:40.603Z,99.90
2018-07-14T01:10:18.821Z,99.90
2018-07-14T01:12:01.528Z,99.90
2018-07-14T01:13:38.898Z,99.90
2018-07-14T01:15:17.278Z,99.90
2018-07-14T01:16:53.720Z,99.90
2018-07-14T01:18:35.586Z,99.90
2018-07-14T01:20:12.525Z,99.90
2018-07-14T01:21:54.671Z,99.90
2018-07-14T01:23:32.393Z,99.90
2018-07-14T01:25:08.953Z,99.90
2018-07-14T01:26:48.093Z,99.90
2018-07-14T01:28:28.548Z,99.90
2018-07-14T01:30:07.901Z,99.90
2018-07-14T01:31:46.047Z,99.90
2018-07-14T01:33:23.421Z,99.90
2018-07-14T01:35:03.395Z,99.90
2018-07-14T01:36:40.455Z,99.90
2018-07-14T01:38:17.393Z,99.90
2018-07-14T01:39:54.289Z,99.90
2018-07-14T01:41:30.842Z,99.90
2018-07-14T01:43:17.281Z,99.90
2018-07-14T01:44:55.705Z,99.90
2018-07-14T01:46:33.228Z,99.90
2018-07-14T01:48:13.016Z,99.90
2018-07-14T01:49:50.392Z,99.90
2018-07-14T01:51:30.471Z,99.90
2018-07-14T01:53:07.697Z,99.90
2018-07-14T01:54:44.143Z,99.90
2018-07-14T01:56:20.484Z,99.90
2018-07-14T01:57:56.906Z,99.90
2018-07-14T01:59:33.275Z,99.90
2018-07-14T02:02:47.960Z,99.90
2018-07-14T02:04:25.957Z,99.90
2018-07-14T02:06:02.437Z,99.90
2018-07-14T02:07:39.081Z,99.90
2018-07-14T02:09:15.928Z,99.90
2018-07-14T02:10:52.311Z,99.90
2018-07-14T02:12:28.622Z,99.90
2018-07-14T02:14:05.270Z,99.90
2018-07-14T02:15:43.014Z,99.90
2018-07-14T02:17:21.525Z,99.90
2018-07-14T02:18:59.988Z,99.90
2018-07-14T02:20:36.422Z,99.90
2018-07-14T02:22:13.856Z,99.90
2018-07-14T02:23:50.275Z,99.90
2018-07-14T02:25:26.790Z,99.90
2018-07-14T02:27:03.277Z,99.90
2018-07-14T02:28:40.305Z,99.90
2018-07-14T02:30:19.612Z,99.90
2018-07-14T02:31:56.158Z,99.90
2018-07-14T02:33:32.521Z,99.90
2018-07-14T02:35:09.266Z,99.90
2018-07-14T02:36:45.701Z,99.90
2018-07-14T02:38:22.841Z,99.90
2018-07-14T02:39:59.502Z,99.90
2018-07-14T02:41:36.330Z,99.90
2018-07-14T02:43:12.650Z,99.90
2018-07-14T02:44:49.059Z,99.90
2018-07-14T02:46:25.742Z,99.90
2018-07-14T02:48:07.100Z,99.90
2018-07-14T02:49:47.488Z,99.90
2018-07-14T02:51:28.231Z,99.90
2018-07-14T02:53:09.705Z,99.90
2018-07-14T02:54:50.684Z,99.90
2018-07-14T02:56:27.304Z,99.90
2018-07-14T02:58:03.751Z,99.90
2018-07-14T02:59:41.176Z,99.90
2018-07-14T03:01:17.994Z,99.90
2018-07-14T03:02:54.269Z,99.90
2018-07-14T03:04:30.612Z,99.90
2018-07-14T03:06:07.824Z,99.90
2018-07-14T03:07:44.274Z,99.90
2018-07-14T03:10:55.543Z,99.90
2018-07-14T03:12:32.142Z,99.90
2018-07-14T03:14:10.530Z,99.90
2018-07-14T03:15:48.180Z,99.90
2018-07-14T03:17:26.554Z,99.90
2018-07-14T03:19:03.539Z,99.90
2018-07-14T03:20:42.829Z,99.90
2018-07-14T03:22:19.171Z,99.90
2018-07-14T03:23:55.636Z,99.90
2018-07-14T03:25:32.007Z,99.90
2018-07-14T03:27:08.450Z,99.90
2018-07-14T03:28:44.776Z,99.90
2018-07-14T03:30:21.319Z,99.90
2018-07-14T03:31:58.169Z,99.90
2018-07-14T03:33:34.587Z,99.90
2018-07-14T03:35:11.620Z,99.90
2018-07-14T03:36:52.647Z,99.90
2018-07-14T03:38:29.468Z,99.90
2018-07-14T03:40:06.165Z,99.90
2018-07-14T03:41:42.559Z,99.90
2018-07-14T03:43:21.967Z,99.90
2018-07-14T03:45:03.609Z,99.90
2018-07-14T03:46:40.134Z,99.90
2018-07-14T03:48:19.762Z,99.90
2018-07-14T03:49:56.478Z,99.90
2018-07-14T03:51:35.541Z,99.90
2018-07-14T03:53:11.834Z,99.90
2018-07-14T03:54:49.382Z,99.90
2018-07-14T03:56:26.758Z,99.90
2018-07-14T03:58:03.166Z,99.90
2018-07-14T03:59:39.514Z,99.90
2018-07-14T04:01:20.388Z,99.90
2018-07-14T04:02:56.766Z,99.90
2018-07-14T04:04:34.816Z,99.90
2018-07-14T04:06:21.525Z,99.90
2018-07-14T04:07:57.787Z,99.90
2018-07-14T04:09:34.118Z,99.90
2018-07-14T04:11:10.903Z,99.90
2018-07-14T04:12:48.586Z,99.90
2018-07-14T04:14:24.998Z,99.90
2018-07-14T04:16:04.537Z,99.90
2018-07-14T04:17:52.419Z,99.90
2018-07-14T04:19:28.702Z,99.90
2018-07-14T04:21:05.129Z,99.90
2018-07-14T04:22:43.285Z,99.90
2018-07-14T04:24:28.007Z,99.90
2018-07-14T04:26:09.656Z,99.90
2018-07-14T04:27:53.569Z,99.90
2018-07-14T04:29:55.972Z,99.90
2018-07-14T04:31:36.778Z,99.90
2018-07-14T04:33:16.096Z,99.90
2018-07-14T04:34:52.870Z,99.90
2018-07-14T04:36:29.215Z,99.70
2018-07-14T04:38:05.698Z,99.90
2018-07-14T04:39:42.362Z,99.80
2018-07-14T04:41:19.079Z,99.50
2018-07-14T04:42:55.408Z,99.70
2018-07-14T04:44:31.723Z,99.80
2018-07-14T04:46:09.417Z,99.90
2018-07-14T04:48:04.011Z,99.90
2018-07-14T04:49:40.380Z,99.40
2018-07-14T04:51:16.679Z,99.90
2018-07-14T04:52:56.039Z,99.40
2018-07-14T04:54:36.343Z,98.70
2018-07-14T04:56:12.852Z,98.50
2018-07-14T04:57:49.179Z,97.50
2018-07-14T05:01:31.594Z,97.30
2018-07-14T05:06:17.731Z,95.70
2018-07-14T05:07:54.545Z,95.20
2018-07-14T05:09:32.727Z,95.00
2018-07-14T05:11:12.038Z,94.90
2018-07-14T05:12:48.330Z,94.60
2018-07-14T05:14:24.632Z,94.80
2018-07-14T05:16:01.358Z,94.50
2018-07-14T05:17:38.445Z,94.30
2018-07-14T05:19:15.846Z,94.20
2018-07-14T05:22:37.738Z,94.60
2018-07-14T05:24:16.485Z,94.40
2018-07-14T05:25:54.624Z,94.10
2018-07-14T05:27:30.943Z,93.80
2018-07-14T05:29:07.287Z,93.10
2018-07-14T05:30:44.338Z,92.60
2018-07-14T05:32:20.891Z,91.90
2018-07-14T05:33:57.245Z,92.00
2018-07-14T05:35:33.691Z,92.10
2018-07-14T05:37:10.437Z,92.00
2018-07-14T05:38:46.801Z,92.30
2018-07-14T05:40:24.017Z,92.20
2018-07-14T05:42:00.353Z,92.10
2018-07-14T05:43:36.814Z,92.50
2018-07-14T05:45:15.465Z,93.40
2018-07-14T05:46:52.042Z,93.80
2018-07-14T05:48:28.364Z,94.30
2018-07-14T05:50:08.306Z,94.30
2018-07-14T05:51:45.263Z,93.40
2018-07-14T05:53:23.147Z,92.40
2018-07-14T05:54:59.449Z,91.80
2018-07-14T05:56:36.283Z,91.70
2018-07-14T05:58:15.451Z,90.90
2018-07-14T05:59:52.755Z,90.40
2018-07-14T06:01:29.160Z,90.20
2018-07-14T06:03:06.027Z,90.20
2018-07-14T06:04:43.171Z,90.30
2018-07-14T06:06:21.854Z,90.10
2018-07-14T06:07:58.202Z,89.90
2018-07-14T06:09:34.937Z,88.50
2018-07-14T06:11:11.838Z,88.60
2018-07-14T06:12:52.350Z,88.10
2018-07-14T06:14:29.463Z,87.50
2018-07-14T06:16:06.502Z,87.40
2018-07-14T06:17:42.804Z,87.50
2018-07-14T06:19:19.665Z,87.90
2018-07-14T06:20:57.534Z,88.30
2018-07-14T06:22:34.727Z,88.30
2018-07-14T06:24:11.070Z,88.80
2018-07-14T06:25:47.812Z,90.00
2018-07-14T06:27:25.002Z,90.00
2018-07-14T06:29:01.906Z,90.10
2018-07-14T06:30:38.272Z,90.50
2018-07-14T06:32:14.547Z,90.80
2018-07-14T06:33:53.677Z,91.00
2018-07-14T06:35:31.755Z,90.40
2018-07-14T06:37:19.705Z,90.00
2018-07-14T06:38:59.046Z,89.30
2018-07-14T06:40:37.993Z,89.10
2018-07-14T06:43:52.933Z,88.60
2018-07-14T06:45:30.768Z,90.00
2018-07-14T06:47:07.615Z,90.60
2018-07-14T06:48:44.310Z,90.90
2018-07-14T06:50:32.181Z,91.60
2018-07-14T06:52:08.893Z,91.90
2018-07-14T06:53:52.156Z,90.80
2018-07-14T06:55:29.537Z,90.40
2018-07-14T06:57:05.914Z,90.30
2018-07-14T06:58:43.035Z,90.00
2018-07-14T07:00:25.527Z,90.70
2018-07-14T07:03:39.492Z,88.90
2018-07-14T07:05:18.163Z,88.80
2018-07-14T07:06:54.911Z,88.10
2018-07-14T07:08:33.171Z,87.70
2018-07-14T07:10:09.615Z,89.40
2018-07-14T07:11:47.719Z,90.70
2018-07-14T07:13:25.057Z,91.60
2018-07-14T07:15:03.149Z,92.80
2018-07-14T07:16:40.705Z,93.00
2018-07-14T07:18:23.450Z,92.70
2018-07-14T07:20:01.813Z,91.40
2018-07-14T07:21:42.407Z,90.60
2018-07-14T07:23:19.267Z,90.00
2018-07-14T07:24:57.324Z,90.00
2018-07-14T07:26:34.049Z,89.20
2018-07-14T07:28:11.754Z,89.60
2018-07-14T07:29:52.179Z,89.10
2018-07-14T07:31:29.545Z,89.60
2018-07-14T07:33:06.652Z,90.20
2018-07-14T07:34:43.297Z,90.70
2018-07-14T07:36:23.643Z,90.50
2018-07-14T07:38:01.362Z,90.70
2018-07-14T07:39:38.043Z,91.30
2018-07-14T07:41:19.202Z,91.40
2018-07-14T07:42:56.519Z,91.40
2018-07-14T07:44:36.074Z,91.30
2018-07-14T07:46:21.396Z,90.90
2018-07-14T07:48:00.481Z,91.00
2018-07-14T07:49:37.784Z,91.90
2018-07-14T07:51:14.748Z,91.90
2018-07-14T07:52:51.401Z,91.60
2018-07-14T07:54:27.741Z,92.30
2018-07-14T07:56:04.257Z,91.90
2018-07-14T07:57:41.454Z,91.90
2018-07-14T07:59:18.312Z,92.20
2018-07-14T08:00:56.561Z,92.50
2018-07-14T08:02:34.727Z,92.90
2018-07-14T08:04:12.891Z,92.90
2018-07-14T08:05:49.843Z,92.80
2018-07-14T08:07:28.113Z,92.40
2018-07-14T08:09:09.287Z,92.20
2018-07-14T08:10:45.647Z,92.60
2018-07-14T08:12:23.990Z,93.00
2018-07-14T08:14:00.490Z,93.70
2018-07-14T08:15:38.834Z,93.90
2018-07-14T08:17:18.298Z,93.40
2018-07-14T08:18:56.331Z,93.30
2018-07-14T08:20:33.551Z,92.70
2018-07-14T08:22:13.268Z,92.90
2018-07-14T08:23:51.825Z,93.00
2018-07-14T08:25:31.617Z,92.90
2018-07-14T08:27:08.651Z,92.70
2018-07-14T08:28:45.792Z,92.80
2018-07-14T08:30:22.874Z,92.80
2018-07-14T08:32:00.440Z,92.30
2018-07-14T08:33:44.086Z,91.70
2018-07-14T08:36:57.474Z,92.20
2018-07-14T08:38:34.151Z,92.80
2018-07-14T08:40:11.925Z,92.50
2018-07-14T08:41:48.452Z,92.60
2018-07-14T08:43:25.677Z,92.20
2018-07-14T08:45:07.531Z,92.20
2018-07-14T08:46:55.342Z,92.50
2018-07-14T08:48:45.310Z,92.60
2018-07-14T08:50:29.553Z,92.50
2018-07-14T08:52:10.419Z,92.50
2018-07-14T08:53:48.286Z,92.80
2018-07-14T08:55:26.950Z,93.70
2018-07-14T08:57:11.327Z,93.80
2018-07-14T08:58:53.235Z,93.60
2018-07-14T09:00:49.285Z,92.80
2018-07-14T09:02:30.528Z,91.70
2018-07-14T09:04:12.300Z,91.20
2018-07-14T09:05:58.849Z,90.80
2018-07-14T09:07:37.582Z,90.60
2018-07-14T09:09:16.706Z,91.20
2018-07-14T09:12:36.634Z,90.90
2018-07-14T09:14:14.911Z,90.40
2018-07-14T09:15:59.331Z,90.50
2018-07-14T09:17:35.770Z,90.60
2018-07-14T09:19:13.303Z,90.70
2018-07-14T09:20:54.386Z,90.90
2018-07-14T09:22:34.509Z,91.40
2018-07-14T09:24:12.252Z,91.60
2018-07-14T09:25:49.564Z,90.90
2018-07-14T09:27:30.417Z,90.70
2018-07-14T09:29:11.555Z,90.60
2018-07-14T09:30:50.190Z,90.20
2018-07-14T09:32:30.553Z,90.10
2018-07-14T09:34:09.246Z,90.00
2018-07-14T09:35:48.756Z,90.40
2018-07-14T09:37:25.815Z,90.10
2018-07-14T09:39:03.379Z,91.10
2018-07-14T09:40:46.518Z,91.00
2018-07-14T09:42:26.878Z,91.20
2018-07-14T09:44:04.871Z,90.90
2018-07-14T09:45:46.558Z,90.20
2018-07-14T09:47:26.677Z,90.50
2018-07-14T09:49:07.878Z,90.40
2018-07-14T09:50:50.242Z,90.00
2018-07-14T09:52:29.480Z,89.90
2018-07-14T09:54:17.008Z,90.00
2018-07-14T09:55:55.760Z,90.30
2018-07-14T09:57:37.182Z,90.70
2018-07-14T10:02:47.170Z,90.90
2018-07-14T10:04:25.618Z,91.40
2018-07-14T10:06:07.851Z,90.90
2018-07-14T10:07:48.671Z,91.10
2018-07-14T10:09:26.543Z,91.30
2018-07-14T10:11:04.315Z,91.00
2018-07-14T10:12:44.574Z,90.80
2018-07-14T10:16:04.384Z,90.40
2018-07-14T10:17:41.005Z,90.60
2018-07-14T10:19:19.200Z,90.20
2018-07-14T10:20:57.312Z,90.30
2018-07-14T10:22:36.452Z,90.80
2018-07-14T10:24:15.321Z,90.10
2018-07-14T10:25:56.200Z,89.80
2018-07-14T10:27:39.357Z,90.00
2018-07-14T10:29:16.707Z,90.40
2018-07-14T10:30:55.206Z,90.20
2018-07-14T10:32:35.077Z,91.10
2018-07-14T10:34:12.004Z,90.50
2018-07-14T10:35:51.669Z,90.20
2018-07-14T10:37:31.184Z,89.20
2018-07-14T10:39:11.793Z,88.70
2018-07-14T10:40:53.975Z,88.90
2018-07-14T10:42:31.085Z,87.40
2018-07-14T10:44:15.730Z,88.30
2018-07-14T10:47:52.561Z,86.70
2018-07-14T10:51:15.152Z,90.00
2018-07-14T10:52:54.490Z,90.00
2018-07-14T10:54:44.799Z,90.90
2018-07-14T10:56:27.375Z,90.30
2018-07-14T10:58:07.675Z,89.50
2018-07-14T11:00:11.654Z,88.50
2018-07-14T11:01:51.431Z,87.70
2018-07-14T11:03:29.757Z,87.70
2018-07-14T11:05:09.318Z,87.50
2018-07-14T11:06:46.663Z,88.40
2018-07-14T11:08:23.680Z,88.70
2018-07-14T11:10:07.383Z,87.40
2018-07-14T11:11:46.315Z,87.80
2018-07-14T11:13:23.773Z,86.90
2018-07-14T11:15:00.860Z,86.70
2018-07-14T11:16:42.213Z,86.10
2018-07-14T11:18:21.538Z,85.70
2018-07-14T11:20:00.781Z,87.10
2018-07-14T11:21:37.797Z,87.10
2018-07-14T11:23:15.443Z,86.80
2018-07-14T11:24:52.673Z,86.30
2018-07-14T11:26:34.230Z,86.80
2018-07-14T11:28:11.385Z,85.90
2018-07-14T11:29:48.375Z,85.40
2018-07-14T11:31:32.816Z,85.40
2018-07-14T11:33:13.215Z,85.20
2018-07-14T11:34:51.178Z,85.70
2018-07-14T11:36:28.166Z,85.00
2018-07-14T11:38:05.296Z,85.10
2018-07-14T11:39:42.505Z,85.40
2018-07-14T11:41:19.829Z,85.90
2018-07-14T11:42:58.200Z,86.10
2018-07-14T11:44:36.546Z,85.60
2018-07-14T11:46:13.345Z,85.40
2018-07-14T11:47:49.832Z,84.80
2018-07-14T11:49:27.750Z,86.20
2018-07-14T11:51:04.077Z,86.40
2018-07-14T11:52:40.464Z,83.20
2018-07-14T11:54:16.878Z,82.70
2018-07-14T11:55:54.036Z,82.90
2018-07-14T11:57:30.360Z,82.30
2018-07-14T11:59:07.538Z,83.80
2018-07-14T12:00:45.664Z,82.20
2018-07-14T12:02:24.448Z,79.70
2018-07-14T12:04:03.914Z,80.30
2018-07-14T12:05:41.172Z,79.60
2018-07-14T12:07:19.934Z,78.60
2018-07-14T12:08:57.393Z,78.50
2018-07-14T12:10:45.669Z,76.10
2018-07-14T12:12:24.520Z,76.40
2018-07-14T12:14:02.581Z,74.90
2018-07-14T12:15:45.276Z,75.90
2018-07-14T12:17:24.902Z,77.30
2018-07-14T12:19:05.789Z,77.10
2018-07-14T12:20:45.866Z,77.10
2018-07-14T12:22:24.811Z,75.90
2018-07-14T12:24:03.004Z,76.10
2018-07-14T12:25:44.070Z,77.50
2018-07-14T12:27:20.535Z,78.20
2018-07-14T12:28:57.725Z,77.40
2018-07-14T12:30:36.013Z,76.40
2018-07-14T12:32:14.603Z,75.50
2018-07-14T12:34:02.650Z,76.20
2018-07-14T12:35:41.945Z,77.80
2018-07-14T12:37:19.528Z,78.40
2018-07-14T12:38:56.424Z,76.80
2018-07-14T12:40:33.494Z,77.10
2018-07-14T12:42:09.982Z,76.50
2018-07-14T12:43:46.320Z,75.60
2018-07-14T12:45:24.839Z,74.60
2018-07-14T12:47:02.545Z,75.00
2018-07-14T12:48:40.895Z,73.90
2018-07-14T12:51:57.713Z,69.60
2018-07-14T12:53:39.153Z,70.20
2018-07-14T12:55:18.504Z,70.70
2018-07-14T12:56:54.910Z,70.60
2018-07-14T12:58:31.605Z,72.10
2018-07-14T13:00:08.786Z,69.80
2018-07-14T13:01:46.288Z,69.70
2018-07-14T13:03:22.589Z,70.40
2018-07-14T13:05:09.830Z,72.30
2018-07-14T13:06:50.646Z,73.00
2018-07-14T13:08:30.737Z,72.50
2018-07-14T13:10:10.237Z,72.50
2018-07-14T13:11:47.801Z,69.10
2018-07-14T13:13:27.395Z,69.40
2018-07-14T13:15:07.290Z,68.70
2018-07-14T13:16:46.192Z,69.20
2018-07-14T13:18:22.698Z,69.10
2018-07-14T13:20:01.006Z,66.30
2018-07-14T13:21:38.057Z,69.10
2018-07-14T13:23:14.726Z,67.60
2018-07-14T13:24:52.588Z,67.70
2018-07-14T13:26:28.976Z,68.60
2018-07-14T13:28:05.799Z,68.50
2018-07-14T13:29:46.250Z,66.40
2018-07-14T13:31:24.686Z,64.20
2018-07-14T13:33:02.488Z,64.40
2018-07-14T13:34:38.934Z,66.30
2018-07-14T13:36:17.949Z,66.70
2018-07-14T13:37:55.839Z,66.40
2018-07-14T13:39:32.284Z,66.50
2018-07-14T13:41:09.602Z,66.20
2018-07-14T13:42:50.552Z,66.30
2018-07-14T13:44:31.615Z,63.80
2018-07-14T13:46:11.601Z,65.10
2018-07-14T13:47:48.271Z,65.20
2018-07-14T13:49:27.911Z,67.40
2018-07-14T13:51:05.303Z,66.00
2018-07-14T13:52:42.353Z,67.20
2018-07-14T13:54:25.253Z,66.20
2018-07-14T13:56:02.524Z,63.80
2018-07-14T13:57:41.693Z,63.90
2018-07-14T14:01:03.426Z,62.20
2018-07-14T14:02:45.513Z,62.80
2018-07-14T14:04:23.652Z,60.70
2018-07-14T14:06:00.121Z,62.40
2018-07-14T14:07:42.546Z,64.20
2018-07-14T14:09:19.437Z,63.80
2018-07-14T14:10:57.521Z,64.40
2018-07-14T14:12:35.821Z,65.40
2018-07-14T14:14:12.483Z,64.00
2018-07-14T14:15:50.405Z,64.50
2018-07-14T14:17:26.862Z,64.10
2018-07-14T14:19:04.933Z,62.90
2018-07-14T14:20:42.019Z,61.40
2018-07-14T14:22:20.743Z,60.70
2018-07-14T14:23:58.654Z,62.60
2018-07-14T14:25:36.600Z,61.40
2018-07-14T14:27:13.516Z,59.90
2018-07-14T14:28:50.481Z,59.80
2018-07-14T14:30:28.511Z,58.90
2018-07-14T14:32:07.915Z,57.80
2018-07-14T14:33:47.746Z,59.10
2018-07-14T14:35:24.465Z,58.90
2018-07-14T14:37:03.960Z,59.30
2018-07-14T14:38:43.592Z,61.60
2018-07-14T14:40:21.949Z,61.00
2018-07-14T14:42:01.841Z,59.30
2018-07-14T14:43:41.389Z,59.50
2018-07-14T14:46:55.998Z,58.70
2018-07-14T14:48:35.908Z,59.50
2018-07-14T14:50:17.052Z,58.10
2018-07-14T14:51:54.752Z,57.60
2018-07-14T14:53:31.253Z,58.10
2018-07-14T14:55:08.650Z,58.50
2018-07-14T14:56:45.155Z,57.30
2018-07-14T14:58:21.631Z,57.00
2018-07-14T14:59:58.115Z,57.70
2018-07-14T15:01:35.026Z,57.90
2018-07-14T15:03:12.646Z,57.50
2018-07-14T15:04:49.033Z,57.90
2018-07-14T15:06:25.984Z,57.00
2018-07-14T15:08:04.638Z,56.60
2018-07-14T15:09:42.011Z,56.50
2018-07-14T15:11:22.592Z,57.30
2018-07-14T15:13:03.727Z,57.60
2018-07-14T15:14:42.381Z,57.10
2018-07-14T15:18:08.655Z,58.10
2018-07-14T15:19:46.253Z,58.30
2018-07-14T15:21:23.520Z,58.20
2018-07-14T15:23:00.741Z,58.20
2018-07-14T15:24:43.235Z,57.90
2018-07-14T15:26:21.636Z,56.80
2018-07-14T15:27:59.858Z,56.30
2018-07-14T15:29:38.729Z,56.20
2018-07-14T15:31:16.394Z,57.00
2018-07-14T15:32:54.781Z,57.60
2018-07-14T15:34:33.407Z,58.00
2018-07-14T15:36:10.774Z,57.70
2018-07-14T15:37:47.109Z,58.90
2018-07-14T15:39:23.765Z,58.70
2018-07-14T15:41:01.610Z,58.70
2018-07-14T15:42:42.622Z,58.30
2018-07-14T15:44:20.675Z,58.40
2018-07-14T15:45:58.559Z,58.60
2018-07-14T15:47:35.003Z,58.60
2018-07-14T15:49:14.574Z,58.30
2018-07-14T15:50:50.950Z,58.90
2018-07-14T15:52:31.577Z,59.20
2018-07-14T15:54:10.624Z,58.50
2018-07-14T15:55:49.458Z,58.30
2018-07-14T15:57:26.293Z,58.30
2018-07-14T15:59:02.594Z,58.80
2018-07-14T16:00:39.797Z,57.90
2018-07-14T16:02:32.106Z,56.70
2018-07-14T16:04:09.669Z,55.60
2018-07-14T16:05:46.070Z,55.00
2018-07-14T16:07:22.494Z,54.30
2018-07-14T16:09:00.776Z,54.30
2018-07-14T16:10:38.792Z,53.10
2018-07-14T16:12:21.448Z,53.40
2018-07-14T16:13:58.682Z,54.10
2018-07-14T16:15:39.981Z,54.60
2018-07-14T16:17:17.996Z,54.70
2018-07-14T16:18:56.751Z,54.60
2018-07-14T16:20:33.777Z,55.00
2018-07-14T16:22:10.188Z,54.50
2018-07-14T16:23:47.272Z,54.80
2018-07-14T16:27:03.522Z,55.90
2018-07-14T16:28:40.915Z,55.40
2018-07-14T16:30:22.424Z,55.90
2018-07-14T16:32:24.549Z,54.50
2018-07-14T16:34:02.464Z,54.10
2018-07-14T16:35:40.558Z,55.00
2018-07-14T16:37:18.765Z,54.30
2018-07-14T16:38:55.517Z,54.40
2018-07-14T16:40:31.842Z,53.50
2018-07-14T16:42:14.394Z,53.30
2018-07-14T16:43:55.867Z,53.70
2018-07-14T16:45:38.148Z,53.00
2018-07-14T16:47:15.259Z,53.50
2018-07-14T16:48:53.723Z,53.40
2018-07-14T16:50:37.708Z,53.70
2018-07-14T16:52:17.112Z,53.30
2018-07-14T16:53:53.703Z,53.90
2018-07-14T16:55:32.066Z,53.50
2018-07-14T16:57:09.094Z,53.40
2018-07-14T16:58:49.135Z,52.90
2018-07-14T17:02:08.742Z,52.80
2018-07-14T17:07:32.376Z,55.00
2018-07-14T17:09:10.744Z,54.80
2018-07-14T17:10:49.127Z,55.20
2018-07-14T17:12:26.300Z,56.10
2018-07-14T17:14:09.365Z,56.70
2018-07-14T17:15:50.416Z,57.20
2018-07-14T17:17:30.820Z,56.60
2018-07-14T17:19:12.463Z,57.40
2018-07-14T17:20:51.567Z,58.40
2018-07-14T17:22:29.332Z,59.00
2018-07-14T17:24:07.813Z,59.10
2018-07-14T17:25:48.323Z,58.80
2018-07-14T17:27:34.122Z,58.80
2018-07-14T17:29:24.301Z,59.60
2018-07-14T17:31:02.016Z,60.30
2018-07-14T17:32:38.825Z,60.00
2018-07-14T17:34:17.337Z,59.80
2018-07-14T17:36:08.681Z,60.10
2018-07-14T17:37:46.728Z,60.40
2018-07-14T17:39:24.816Z,59.40
2018-07-14T17:41:02.165Z,59.70
2018-07-14T17:42:38.541Z,59.70
2018-07-14T17:44:19.868Z,60.00
2018-07-14T17:46:00.181Z,59.90
2018-07-14T17:47:41.789Z,60.00
2018-07-14T17:49:20.133Z,60.10
2018-07-14T17:50:58.552Z,60.70
2018-07-14T17:52:38.051Z,60.10
2018-07-14T17:54:19.217Z,59.70
2018-07-14T17:56:01.312Z,59.70
2018-07-14T17:57:47.802Z,59.00
2018-07-14T17:59:29.599Z,59.10
2018-07-14T18:01:07.010Z,59.20
2018-07-14T18:02:45.746Z,59.70
2018-07-14T18:04:23.731Z,60.30
2018-07-14T18:06:00.730Z,60.30
2018-07-14T18:07:38.658Z,60.10
2018-07-14T18:09:16.261Z,60.20
2018-07-14T18:10:58.811Z,59.40
2018-07-14T18:12:37.586Z,59.30
2018-07-14T18:14:14.630Z,59.90
2018-07-14T18:15:52.588Z,60.00
2018-07-14T18:17:33.300Z,59.90
2018-07-14T18:19:15.992Z,59.80
2018-07-14T18:20:54.681Z,59.50
2018-07-14T18:22:31.805Z,59.40
2018-07-14T18:24:12.744Z,59.40
2018-07-14T18:25:50.329Z,59.30
2018-07-14T18:27:34.316Z,59.10
2018-07-14T18:29:24.009Z,59.50
2018-07-14T18:31:03.081Z,59.00
2018-07-14T18:32:48.738Z,58.90
2018-07-14T18:34:26.738Z,59.10
2018-07-14T18:36:07.758Z,59.20
2018-07-14T18:37:45.868Z,59.80
2018-07-14T18:39:28.513Z,59.70
2018-07-14T18:41:08.177Z,59.60
2018-07-14T18:42:49.207Z,59.60
2018-07-14T18:44:26.348Z,59.70
2018-07-14T18:46:21.639Z,59.80
2018-07-14T18:48:01.253Z,60.50
2018-07-14T18:49:38.481Z,59.90
2018-07-14T18:51:18.752Z,59.90
2018-07-14T18:52:58.862Z,59.70
2018-07-14T18:54:42.791Z,60.00
2018-07-14T18:56:29.889Z,60.90
2018-07-14T18:58:09.626Z,60.20
2018-07-14T18:59:50.215Z,60.20
2018-07-14T19:01:37.434Z,60.50
2018-07-14T19:03:19.260Z,61.30
2018-07-14T19:04:59.224Z,60.90
2018-07-14T19:06:38.394Z,61.30
2018-07-14T19:08:18.330Z,61.70
2018-07-14T19:10:04.752Z,61.70
2018-07-14T19:11:45.648Z,61.20
2018-07-14T19:13:27.138Z,60.50
2018-07-14T19:15:09.800Z,60.40
2018-07-14T19:16:51.309Z,60.20
2018-07-14T19:18:30.293Z,60.70
2018-07-14T19:20:12.654Z,60.70
2018-07-14T19:21:50.962Z,61.90
2018-07-14T19:23:29.608Z,61.30
2018-07-14T19:25:10.832Z,61.80
2018-07-14T19:26:49.339Z,60.60
2018-07-14T19:28:35.782Z,60.70
2018-07-14T19:30:19.417Z,60.50
2018-07-14T19:32:09.821Z,59.50
2018-07-14T19:33:51.215Z,60.70
2018-07-14T19:35:33.198Z,61.80
2018-07-14T19:37:36.080Z,62.30
2018-07-14T19:39:17.982Z,62.50
2018-07-14T19:40:57.388Z,61.60
2018-07-14T19:42:40.668Z,62.20
2018-07-14T19:44:19.190Z,62.40
2018-07-14T19:46:01.670Z,63.60
2018-07-14T19:47:50.522Z,64.00
2018-07-14T19:49:33.950Z,63.50
2018-07-14T19:51:25.176Z,62.90
2018-07-14T19:53:10.132Z,62.70
2018-07-14T19:54:56.903Z,63.20
2018-07-14T19:56:42.985Z,63.60
2018-07-14T19:58:23.548Z,64.30
2018-07-14T20:00:05.377Z,63.90
2018-07-14T20:01:50.539Z,64.20
2018-07-14T20:03:31.570Z,65.00
2018-07-14T20:05:13.128Z,64.40
2018-07-14T20:06:52.515Z,65.00
2018-07-14T20:08:33.669Z,66.00
2018-07-14T20:10:13.400Z,65.70
2018-07-14T20:12:01.059Z,65.40
2018-07-14T20:13:39.940Z,66.10
2018-07-14T20:15:20.485Z,65.90
2018-07-14T20:18:47.220Z,66.90
2018-07-14T20:20:27.552Z,66.80
2018-07-14T20:22:17.686Z,66.90
2018-07-14T20:24:00.505Z,66.60
2018-07-14T20:25:42.829Z,66.70
2018-07-14T20:27:40.781Z,67.30
2018-07-14T20:31:04.762Z,66.80
2018-07-14T20:32:42.995Z,66.80
2018-07-14T20:34:19.724Z,67.50
2018-07-14T20:37:38.223Z,68.00
2018-07-14T20:39:17.571Z,68.30
2018-07-14T20:40:57.965Z,68.40
2018-07-14T20:42:35.739Z,68.20
2018-07-14T20:44:19.551Z,68.10
2018-07-14T20:46:00.634Z,68.30
2018-07-14T20:47:41.439Z,69.10
2018-07-14T20:49:20.582Z,69.00
2018-07-14T20:51:04.607Z,68.50
2018-07-14T20:52:41.967Z,67.80
2018-07-14T20:54:22.509Z,68.00
2018-07-14T20:56:11.557Z,67.80
2018-07-14T20:58:23.369Z,68.30
2018-07-14T21:00:05.894Z,69.00
2018-07-14T21:01:43.509Z,68.60
2018-07-14T21:03:26.529Z,68.90
2018-07-14T21:05:12.579Z,69.40
2018-07-14T21:09:21.570Z,69.50
2018-07-14T21:11:07.085Z,69.90
2018-07-14T21:12:47.746Z,69.60
2018-07-14T21:14:28.305Z,69.20
2018-07-14T21:16:07.413Z,70.30
2018-07-14T21:17:49.218Z,69.50
2018-07-14T21:19:27.850Z,69.90
2018-07-14T21:21:12.331Z,70.40
2018-07-14T21:22:51.121Z,70.00
2018-07-14T21:24:29.404Z,69.60
2018-07-14T21:26:14.512Z,70.80
2018-07-14T21:27:52.908Z,71.50
2018-07-14T21:29:36.678Z,71.40
2018-07-14T21:33:08.429Z,73.00
2018-07-14T21:35:00.543Z,73.70
2018-07-14T21:36:38.634Z,73.70
2018-07-14T21:38:18.510Z,74.10
2018-07-14T21:40:10.791Z,74.00
2018-07-14T21:43:47.151Z,76.30
2018-07-14T21:45:27.500Z,76.10
2018-07-14T21:50:19.958Z,75.70
2018-07-14T21:52:07.308Z,78.20
2018-07-14T21:54:10.299Z,79.40
2018-07-14T21:55:50.824Z,80.20
2018-07-14T21:57:28.902Z,81.40
2018-07-14T21:59:07.988Z,81.90
2018-07-14T22:00:51.639Z,82.40
2018-07-14T22:02:33.446Z,81.90
2018-07-14T22:04:12.513Z,81.50
2018-07-14T22:05:51.296Z,81.40
2018-07-14T22:07:28.578Z,82.10
2018-07-14T22:09:06.540Z,82.30
2018-07-14T22:10:47.508Z,81.10
2018-07-14T22:12:32.269Z,81.80
2018-07-14T22:14:13.998Z,82.70
2018-07-14T22:15:51.298Z,81.80
2018-07-14T22:17:29.076Z,81.50